createdAt,value
2023-01-13T00:01:46.387Z,9.36
2023-01-13T00:04:19.095Z,9.35
2023-01-13T00:06:47.464Z,9.35
2023-01-13T00:09:15.637Z,9.34
2023-01-13T00:11:44.878Z,9.61
2023-01-13T00:14:17.449Z,9.62
2023-01-13T00:16:47.584Z,9.57
2023-01-13T00:19:17.876Z,9.59
2023-01-13T00:21:46.712Z,9.63
2023-01-13T00:24:15.650Z,9.61
2023-01-13T00:26:44.556Z,9.64
2023-01-13T00:29:12.721Z,9.67
2023-01-13T00:31:44.413Z,9.71
2023-01-13T00:34:14.456Z,9.72
2023-01-13T00:36:44.908Z,9.72
2023-01-13T00:39:14.049Z,9.73
2023-01-13T00:42:00.121Z,9.76
2023-01-13T00:44:28.432Z,9.71
2023-01-13T00:46:59.524Z,9.74
2023-01-13T00:49:31.097Z,9.82
2023-01-13T00:52:04.495Z,9.80
2023-01-13T00:54:32.857Z,9.82
2023-01-13T00:57:01.008Z,9.73
2023-01-13T00:59:29.071Z,9.75
2023-01-13T01:02:00.137Z,9.81
2023-01-13T01:04:28.536Z,9.82
2023-01-13T01:06:58.343Z,9.78
2023-01-13T01:09:32.917Z,9.74
2023-01-13T01:12:02.737Z,9.77
2023-01-13T01:14:33.452Z,9.68
2023-01-13T01:17:01.596Z,9.71
2023-01-13T01:19:32.538Z,9.73
2023-01-13T01:22:01.557Z,9.69
2023-01-13T01:24:30.994Z,9.72
2023-01-13T01:27:00.832Z,9.69
2023-01-13T01:29:28.991Z,9.75
2023-01-13T01:32:00.659Z,9.72
2023-01-13T01:34:28.876Z,9.66
2023-01-13T01:36:58.466Z,9.71
2023-01-13T01:39:26.821Z,9.71
2023-01-13T01:42:16.336Z,9.69
2023-01-13T01:44:56.133Z,9.69
2023-01-13T01:47:26.258Z,9.69
2023-01-13T01:50:01.949Z,9.82
2023-01-13T01:52:35.085Z,9.75
2023-01-13T01:55:07.644Z,9.70
2023-01-13T01:57:43.721Z,9.71
2023-01-13T02:00:13.207Z,9.68
2023-01-13T02:02:47.282Z,9.75
2023-01-13T02:05:16.553Z,9.72
2023-01-13T02:07:49.472Z,9.67
2023-01-13T02:10:22.642Z,9.68
2023-01-13T02:12:56.674Z,9.78
2023-01-13T02:15:31.803Z,9.65
2023-01-13T02:18:11.435Z,9.71
2023-01-13T02:20:59.366Z,9.68
2023-01-13T02:24:18.504Z,9.71
2023-01-13T02:27:29.692Z,9.64
2023-01-13T02:30:32.101Z,9.65
2023-01-13T02:33:15.838Z,9.60
2023-01-13T02:35:51.046Z,9.58
2023-01-13T02:38:25.712Z,9.56
2023-01-13T02:40:59.644Z,9.54
2023-01-13T02:44:00.753Z,9.44
2023-01-13T02:46:47.932Z,9.52
2023-01-13T02:49:26.203Z,9.41
2023-01-13T02:52:02.368Z,9.37
2023-01-13T02:54:38.110Z,9.37
2023-01-13T02:57:12.171Z,9.37
2023-01-13T02:59:42.198Z,9.35
2023-01-13T03:02:18.663Z,9.37
2023-01-13T03:04:56.919Z,9.30
2023-01-13T03:08:01.691Z,9.34
2023-01-13T03:11:04.981Z,9.30
2023-01-13T03:13:53.302Z,9.28
2023-01-13T03:16:34.014Z,9.20
2023-01-13T03:19:22.109Z,9.20
2023-01-13T03:21:56.830Z,9.28
2023-01-13T03:24:33.052Z,9.19
2023-01-13T03:27:07.943Z,9.19
2023-01-13T03:29:41.330Z,9.22
2023-01-13T03:32:17.503Z,9.16
2023-01-13T03:34:54.458Z,9.15
2023-01-13T03:37:34.802Z,9.18
2023-01-13T03:40:08.635Z,9.17
2023-01-13T03:43:02.954Z,9.10
2023-01-13T03:45:35.839Z,9.09
2023-01-13T03:48:12.182Z,9.09
2023-01-13T03:50:45.554Z,9.18
2023-01-13T03:53:20.653Z,9.15
2023-01-13T03:55:55.120Z,9.16
2023-01-13T03:58:30.188Z,9.20
2023-01-13T04:01:04.268Z,9.20
2023-01-13T04:03:40.265Z,9.25
2023-01-13T04:06:21.600Z,9.18
2023-01-13T04:08:54.087Z,9.22
2023-01-13T04:11:32.081Z,9.17
2023-01-13T04:14:02.586Z,9.12
2023-01-13T04:16:35.659Z,9.18
2023-01-13T04:19:08.700Z,9.15
2023-01-13T04:21:38.951Z,9.13
2023-01-13T04:24:09.176Z,9.14
2023-01-13T04:26:41.634Z,9.13
2023-01-13T04:29:09.935Z,9.24
2023-01-13T04:31:38.534Z,9.24
2023-01-13T04:34:12.318Z,9.23
2023-01-13T04:36:44.934Z,9.20
2023-01-13T04:39:13.527Z,9.23
2023-01-13T04:41:59.554Z,9.28
2023-01-13T04:44:27.957Z,9.26
2023-01-13T04:46:57.613Z,9.34
2023-01-13T04:49:27.506Z,9.39
2023-01-13T04:52:02.323Z,9.32
2023-01-13T04:54:31.797Z,9.38
2023-01-13T04:57:00.246Z,9.36
2023-01-13T04:59:28.419Z,9.36
2023-01-13T05:01:57.188Z,9.34
2023-01-13T05:04:26.306Z,9.33
2023-01-13T05:06:54.967Z,9.33
2023-01-13T05:09:25.525Z,9.39
2023-01-13T05:12:12.608Z,9.42
2023-01-13T05:14:58.489Z,9.40
2023-01-13T05:17:28.072Z,9.43
2023-01-13T05:19:57.819Z,9.43
2023-01-13T05:22:43.776Z,9.50
2023-01-13T05:25:22.520Z,9.50
2023-01-13T05:27:53.531Z,9.52
2023-01-13T05:30:25.440Z,9.54
2023-01-13T05:32:57.087Z,9.58
2023-01-13T05:35:29.134Z,9.58
2023-01-13T05:37:58.641Z,9.49
2023-01-13T05:40:45.521Z,9.44
2023-01-13T05:43:23.625Z,9.47
2023-01-13T05:45:54.805Z,9.48
2023-01-13T05:48:26.053Z,9.50
2023-01-13T05:50:55.094Z,9.60
2023-01-13T05:53:25.206Z,9.59
2023-01-13T05:55:57.133Z,9.59
2023-01-13T05:58:27.013Z,9.57
2023-01-13T06:01:00.690Z,9.56
2023-01-13T06:03:29.039Z,9.55
2023-01-13T06:05:59.344Z,9.53
2023-01-13T06:08:28.992Z,9.46
2023-01-13T06:10:58.821Z,9.50
2023-01-13T06:13:27.718Z,9.53
2023-01-13T06:15:58.736Z,9.46
2023-01-13T06:18:27.681Z,9.53
2023-01-13T06:20:56.704Z,9.54
2023-01-13T06:23:25.359Z,9.42
2023-01-13T06:26:14.647Z,9.49
2023-01-13T06:28:45.379Z,9.38
2023-01-13T06:31:14.243Z,9.47
2023-01-13T06:33:47.911Z,9.24
2023-01-13T06:36:23.180Z,8.86
2023-01-13T06:38:57.424Z,8.47
2023-01-13T06:41:42.493Z,8.25
2023-01-13T06:44:12.102Z,8.23
2023-01-13T06:46:40.584Z,8.19
2023-01-13T06:49:09.761Z,8.11
2023-01-13T06:51:38.332Z,8.07
2023-01-13T06:54:06.776Z,8.11
2023-01-13T06:56:36.566Z,8.18
2023-01-13T06:59:05.071Z,8.14
2023-01-13T07:01:36.662Z,8.09
2023-01-13T07:04:05.206Z,8.05
2023-01-13T07:06:33.385Z,7.94
2023-01-13T07:09:03.001Z,7.92
2023-01-13T07:11:31.654Z,7.96
2023-01-13T07:14:19.911Z,7.84
2023-01-13T07:16:50.522Z,7.85
2023-01-13T07:19:24.238Z,7.81
2023-01-13T07:21:53.858Z,7.79
2023-01-13T07:24:22.753Z,7.82
2023-01-13T07:26:52.132Z,7.78
2023-01-13T07:29:21.604Z,7.84
2023-01-13T07:31:50.442Z,7.88
2023-01-13T07:34:19.070Z,7.92
2023-01-13T07:36:47.282Z,7.89
2023-01-13T07:39:15.774Z,7.92
2023-01-13T07:42:01.418Z,7.91
2023-01-13T07:44:31.383Z,7.82
2023-01-13T07:46:59.943Z,7.79
2023-01-13T07:49:28.060Z,7.78
2023-01-13T07:51:57.841Z,7.78
2023-01-13T07:54:40.105Z,7.71
2023-01-13T07:57:09.375Z,7.73
2023-01-13T07:59:39.241Z,7.70
2023-01-13T08:02:07.655Z,7.67
2023-01-13T08:04:36.056Z,7.64
2023-01-13T08:07:06.269Z,7.68
2023-01-13T08:09:34.793Z,7.62
2023-01-13T08:12:20.990Z,7.66
2023-01-13T08:14:51.757Z,7.63
2023-01-13T08:17:24.863Z,7.59
2023-01-13T08:19:53.189Z,7.54
2023-01-13T08:22:25.840Z,7.49
2023-01-13T08:24:59.854Z,7.46
2023-01-13T08:27:31.026Z,7.46
2023-01-13T08:30:00.646Z,7.51
2023-01-13T08:32:31.528Z,7.64
2023-01-13T08:34:59.915Z,7.67
2023-01-13T08:37:28.216Z,7.62
2023-01-13T08:39:57.155Z,7.60
2023-01-13T08:42:27.856Z,7.70
2023-01-13T08:44:56.820Z,7.66
2023-01-13T08:47:27.979Z,7.75
2023-01-13T08:49:56.627Z,7.73
2023-01-13T08:52:25.427Z,7.78
2023-01-13T08:54:54.232Z,7.80
2023-01-13T08:57:24.053Z,7.83
2023-01-13T08:59:54.559Z,7.79
2023-01-13T09:02:24.599Z,7.77
2023-01-13T09:05:02.817Z,7.84
2023-01-13T09:07:31.656Z,7.92
2023-01-13T09:09:59.963Z,8.01
2023-01-13T09:12:46.400Z,8.02
2023-01-13T09:15:18.317Z,7.98
2023-01-13T09:17:47.879Z,8.12
2023-01-13T09:20:18.176Z,8.14
2023-01-13T09:22:46.506Z,8.09
2023-01-13T09:25:15.220Z,8.17
2023-01-13T09:27:43.496Z,8.18
2023-01-13T09:30:12.614Z,8.43
2023-01-13T09:32:40.903Z,8.65
2023-01-13T09:35:10.319Z,8.87
2023-01-13T09:37:42.367Z,9.07
2023-01-13T09:40:17.612Z,9.32
2023-01-13T09:43:07.706Z,9.39
2023-01-13T09:45:41.214Z,9.34
2023-01-13T09:48:14.794Z,9.20
2023-01-13T09:50:58.533Z,9.10
2023-01-13T09:53:33.909Z,9.09
2023-01-13T09:56:02.479Z,8.99
2023-01-13T09:58:30.935Z,9.02
2023-01-13T10:01:10.734Z,9.13
2023-01-13T10:03:39.860Z,9.05
2023-01-13T10:06:14.879Z,9.14
2023-01-13T10:08:46.905Z,9.11
2023-01-13T10:11:35.555Z,9.06
2023-01-13T10:14:11.609Z,9.09
2023-01-13T10:16:45.318Z,8.94
2023-01-13T10:19:19.227Z,8.77
2023-01-13T10:22:24.232Z,8.91
2023-01-13T10:25:45.276Z,8.93
2023-01-13T10:28:21.093Z,9.07
2023-01-13T10:30:50.974Z,9.13
2023-01-13T10:33:23.489Z,9.19
2023-01-13T10:35:56.339Z,9.14
2023-01-13T10:38:30.743Z,9.09
2023-01-13T10:41:00.699Z,9.12
2023-01-13T10:43:35.728Z,9.26
2023-01-13T10:46:07.035Z,9.38
2023-01-13T10:48:41.527Z,9.41
2023-01-13T10:51:29.030Z,9.57
2023-01-13T10:54:01.005Z,9.57
2023-01-13T10:56:32.302Z,9.52
2023-01-13T10:59:23.169Z,9.46
2023-01-13T11:02:02.416Z,9.38
2023-01-13T11:04:36.262Z,9.40
2023-01-13T11:07:07.184Z,9.58
2023-01-13T11:09:35.473Z,9.50
2023-01-13T11:12:06.085Z,9.59
2023-01-13T11:14:40.568Z,9.68
2023-01-13T11:17:24.616Z,9.66
2023-01-13T11:20:07.172Z,9.63
2023-01-13T11:22:42.367Z,9.67
2023-01-13T11:25:15.564Z,9.76
2023-01-13T11:27:49.006Z,9.73
2023-01-13T11:30:30.817Z,9.75
2023-01-13T11:33:16.877Z,9.74
2023-01-13T11:35:51.074Z,9.76
2023-01-13T11:38:29.852Z,9.81
2023-01-13T11:41:06.917Z,9.88
2023-01-13T11:43:42.092Z,9.83
2023-01-13T11:46:12.382Z,9.93
2023-01-13T11:48:43.437Z,10.10
2023-01-13T11:51:26.455Z,10.17
2023-01-13T11:54:11.611Z,10.02
2023-01-13T11:57:03.122Z,9.77
2023-01-13T11:59:51.971Z,9.73
2023-01-13T12:02:43.043Z,9.57
2023-01-13T12:05:20.285Z,9.51
2023-01-13T12:07:59.893Z,9.57
2023-01-13T12:10:43.694Z,9.56
2023-01-13T12:13:34.931Z,9.73
2023-01-13T12:16:33.759Z,10.22
2023-01-13T12:19:26.441Z,10.30
2023-01-13T12:22:08.922Z,10.10
2023-01-13T12:24:45.928Z,9.98
2023-01-13T12:27:20.468Z,9.85
2023-01-13T12:29:53.180Z,9.70
2023-01-13T12:32:32.488Z,9.66
2023-01-13T12:35:33.882Z,9.56
2023-01-13T12:38:09.588Z,9.44
2023-01-13T12:40:51.880Z,9.39
2023-01-13T12:43:40.063Z,9.33
2023-01-13T12:46:53.406Z,9.23
2023-01-13T12:49:29.031Z,9.15
2023-01-13T12:52:18.432Z,9.19
2023-01-13T12:55:21.362Z,9.18
2023-01-13T12:57:59.363Z,9.22
2023-01-13T13:00:38.077Z,9.33
2023-01-13T13:03:38.792Z,9.33
2023-01-13T13:06:31.355Z,9.51
2023-01-13T13:09:05.075Z,9.46
2023-01-13T13:11:58.660Z,9.56
2023-01-13T13:15:13.109Z,9.55
2023-01-13T13:17:43.096Z,9.83
2023-01-13T13:20:56.066Z,10.05
2023-01-13T13:23:32.988Z,10.25
2023-01-13T13:26:21.314Z,10.44
2023-01-13T13:29:16.643Z,10.62
2023-01-13T13:32:18.323Z,10.71
2023-01-13T13:34:54.045Z,10.64
2023-01-13T13:37:58.846Z,10.47
2023-01-13T13:40:48.791Z,10.24
2023-01-13T13:43:38.459Z,10.11
2023-01-13T13:46:40.223Z,9.97
2023-01-13T13:49:12.767Z,9.77
2023-01-13T13:51:45.281Z,9.60
2023-01-13T13:54:17.455Z,9.44
2023-01-13T13:56:50.403Z,9.32
2023-01-13T13:59:22.595Z,9.28
2023-01-13T14:02:00.896Z,9.42
2023-01-13T14:04:31.481Z,9.71
2023-01-13T14:07:01.955Z,9.83
2023-01-13T14:09:43.750Z,9.70
2023-01-13T14:12:19.463Z,9.48
2023-01-13T14:14:50.844Z,9.44
2023-01-13T14:17:24.546Z,9.29
2023-01-13T14:19:54.781Z,9.25
2023-01-13T14:22:24.071Z,9.19
2023-01-13T14:24:55.707Z,9.21
2023-01-13T14:27:27.375Z,9.27
2023-01-13T14:29:59.588Z,9.74
2023-01-13T14:32:33.587Z,10.04
2023-01-13T14:35:02.715Z,10.21
2023-01-13T14:37:36.304Z,10.25
2023-01-13T14:40:06.919Z,10.11
2023-01-13T14:42:36.207Z,9.81
2023-01-13T14:45:24.486Z,9.63
2023-01-13T14:47:54.749Z,9.62
2023-01-13T14:50:29.439Z,9.57
2023-01-13T14:53:00.605Z,9.59
2023-01-13T14:55:33.033Z,9.43
2023-01-13T14:58:28.167Z,9.32
2023-01-13T15:01:31.077Z,9.19
2023-01-13T15:04:17.100Z,9.03
2023-01-13T15:07:00.437Z,9.00
2023-01-13T15:09:34.543Z,8.90
2023-01-13T15:12:22.182Z,8.99
2023-01-13T15:14:52.607Z,9.12
2023-01-13T15:17:25.231Z,9.02
2023-01-13T15:19:54.983Z,8.88
2023-01-13T15:23:13.012Z,8.90
2023-01-13T15:25:53.161Z,8.91
2023-01-13T15:28:26.176Z,8.89
2023-01-13T15:31:00.488Z,8.88
2023-01-13T15:33:32.457Z,8.70
2023-01-13T15:36:02.819Z,8.63
2023-01-13T15:38:31.027Z,8.56
2023-01-13T15:41:00.534Z,8.61
2023-01-13T15:43:51.368Z,8.56
2023-01-13T15:46:41.159Z,8.55
2023-01-13T15:49:24.255Z,8.54
2023-01-13T15:51:53.062Z,8.58
2023-01-13T15:54:24.494Z,8.48
2023-01-13T15:56:53.589Z,8.43
2023-01-13T15:59:28.055Z,8.37
2023-01-13T16:01:56.900Z,8.38
2023-01-13T16:04:28.396Z,8.56
2023-01-13T16:06:56.912Z,8.58
2023-01-13T16:09:25.287Z,8.59
2023-01-13T16:11:54.526Z,8.48
2023-01-13T16:14:23.053Z,8.57
2023-01-13T16:16:52.141Z,8.47
2023-01-13T16:19:20.283Z,8.43
2023-01-13T16:21:51.161Z,8.42
2023-01-13T16:24:20.591Z,8.51
2023-01-13T16:26:48.879Z,8.49
2023-01-13T16:29:18.434Z,8.56
2023-01-13T16:31:49.520Z,8.48
2023-01-13T16:34:19.025Z,8.49
2023-01-13T16:36:47.511Z,8.68
2023-01-13T16:39:25.780Z,8.54
2023-01-13T16:41:54.100Z,8.50
2023-01-13T16:44:25.361Z,8.44
2023-01-13T16:46:54.471Z,8.48
2023-01-13T16:49:25.357Z,8.46
2023-01-13T16:51:54.047Z,8.44
2023-01-13T16:54:24.208Z,8.43
2023-01-13T16:56:53.732Z,8.42
2023-01-13T16:59:22.418Z,8.22
2023-01-13T17:01:52.271Z,8.17
2023-01-13T17:04:23.491Z,8.17
2023-01-13T17:06:56.234Z,8.16
2023-01-13T17:09:28.087Z,8.37
2023-01-13T17:11:56.856Z,8.15
2023-01-13T17:14:26.882Z,8.18
2023-01-13T17:17:00.191Z,8.08
2023-01-13T17:19:29.811Z,8.13
2023-01-13T17:21:58.070Z,8.12
2023-01-13T17:24:33.556Z,8.09
2023-01-13T17:27:03.126Z,8.06
2023-01-13T17:29:33.046Z,8.14
2023-01-13T17:32:02.801Z,8.05
2023-01-13T17:34:30.982Z,7.97
2023-01-13T17:36:59.393Z,7.86
2023-01-13T17:39:30.648Z,7.87
2023-01-13T17:41:59.095Z,7.86
2023-01-13T17:44:27.316Z,7.79
2023-01-13T17:46:57.941Z,7.80
2023-01-13T17:49:28.182Z,7.82
2023-01-13T17:51:56.546Z,7.79
2023-01-13T17:54:25.039Z,7.80
2023-01-13T17:56:56.648Z,7.81
2023-01-13T17:59:25.269Z,7.84
2023-01-13T18:01:53.963Z,7.85
2023-01-13T18:04:27.141Z,7.79
2023-01-13T18:06:57.722Z,7.88
2023-01-13T18:09:26.663Z,7.86
2023-01-13T18:11:56.687Z,7.95
2023-01-13T18:14:25.461Z,7.89
2023-01-13T18:16:53.975Z,7.91
2023-01-13T18:19:39.967Z,7.88
2023-01-13T18:22:29.690Z,7.86
2023-01-13T18:25:16.301Z,7.75
2023-01-13T18:27:46.753Z,7.83
2023-01-13T18:30:19.290Z,7.82
2023-01-13T18:32:48.021Z,7.79
2023-01-13T18:35:16.503Z,7.71
2023-01-13T18:37:44.809Z,7.60
2023-01-13T18:40:14.814Z,7.53
2023-01-13T18:42:55.020Z,7.69
2023-01-13T18:45:29.168Z,7.64
2023-01-13T18:47:59.582Z,7.51
2023-01-13T18:50:28.465Z,7.50
2023-01-13T18:52:58.235Z,7.53
2023-01-13T18:55:28.688Z,7.50
2023-01-13T18:57:59.396Z,7.58
2023-01-13T19:00:31.993Z,7.56
2023-01-13T19:05:38.288Z,7.42
2023-01-13T19:08:07.063Z,7.43
2023-01-13T19:10:37.540Z,7.49
2023-01-13T19:13:06.152Z,7.41
2023-01-13T19:15:37.318Z,7.39
2023-01-13T19:18:06.203Z,7.36
2023-01-13T19:20:40.420Z,7.36
2023-01-13T19:23:08.787Z,7.46
2023-01-13T19:25:39.259Z,7.32
2023-01-13T19:28:07.759Z,7.20
2023-01-13T19:30:37.684Z,7.19
2023-01-13T19:33:06.480Z,7.16
2023-01-13T19:35:37.636Z,7.15
2023-01-13T19:38:07.313Z,7.28
2023-01-13T19:40:36.692Z,7.25
2023-01-13T19:43:22.525Z,7.32
2023-01-13T19:45:53.288Z,7.42
2023-01-13T19:48:21.374Z,7.43
2023-01-13T19:50:49.790Z,7.49
2023-01-13T19:53:18.578Z,7.50
2023-01-13T19:55:48.579Z,7.56
2023-01-13T19:58:18.824Z,7.55
2023-01-13T20:00:48.581Z,7.56
2023-01-13T20:03:20.973Z,7.57
2023-01-13T20:05:49.576Z,7.57
2023-01-13T20:08:18.214Z,7.54
2023-01-13T20:10:50.047Z,7.59
2023-01-13T20:13:18.381Z,7.60
2023-01-13T20:15:46.937Z,7.68
2023-01-13T20:18:15.131Z,7.53
2023-01-13T20:20:44.858Z,7.50
2023-01-13T20:23:12.927Z,7.54
2023-01-13T20:25:43.520Z,7.49
2023-01-13T20:28:12.049Z,7.64
2023-01-13T20:30:41.741Z,7.61
2023-01-13T20:33:10.320Z,7.59
2023-01-13T20:35:39.871Z,7.58
2023-01-13T20:38:11.447Z,7.54
2023-01-13T20:40:40.158Z,7.78
2023-01-13T20:43:08.402Z,7.79
2023-01-13T20:45:40.448Z,7.77
2023-01-13T20:48:09.053Z,7.79
2023-01-13T20:50:37.330Z,7.71
2023-01-13T20:53:05.583Z,7.62
2023-01-13T20:55:35.484Z,7.59
2023-01-13T20:58:05.131Z,7.59
2023-01-13T21:00:39.212Z,7.58
2023-01-13T21:03:08.557Z,7.66
2023-01-13T21:05:37.155Z,7.63
2023-01-13T21:08:07.210Z,7.61
2023-01-13T21:10:37.882Z,7.57
2023-01-13T21:13:24.112Z,7.54
2023-01-13T21:15:52.794Z,7.77
2023-01-13T21:18:40.032Z,7.65
2023-01-13T21:21:12.983Z,7.66
2023-01-13T21:23:44.024Z,7.62
2023-01-13T21:26:15.623Z,7.73
2023-01-13T21:28:46.610Z,7.60
2023-01-13T21:31:16.430Z,7.57
2023-01-13T21:33:45.145Z,7.56
2023-01-13T21:36:14.312Z,7.53
2023-01-13T21:38:44.920Z,7.48
2023-01-13T21:41:16.187Z,7.46
2023-01-13T21:44:16.822Z,7.59
2023-01-13T21:47:02.767Z,7.58
2023-01-13T21:49:31.880Z,7.44
2023-01-13T21:52:01.980Z,7.48
2023-01-13T21:54:30.827Z,7.50
2023-01-13T21:57:01.360Z,7.52
2023-01-13T21:59:30.400Z,7.41
2023-01-13T22:02:24.743Z,7.39
2023-01-13T22:04:54.214Z,7.28
2023-01-13T22:07:22.624Z,7.29
2023-01-13T22:09:51.171Z,7.36
2023-01-13T22:12:24.989Z,7.32
2023-01-13T22:14:53.834Z,7.39
2023-01-13T22:17:26.342Z,7.50
2023-01-13T22:19:57.141Z,7.59
2023-01-13T22:22:27.229Z,7.49
2023-01-13T22:24:55.968Z,7.43
2023-01-13T22:27:31.387Z,7.39
2023-01-13T22:30:00.107Z,7.36
2023-01-13T22:32:28.619Z,7.37
2023-01-13T22:34:57.209Z,7.27
2023-01-13T22:37:25.571Z,7.27
2023-01-13T22:39:54.075Z,7.27
2023-01-13T22:42:22.675Z,7.21
2023-01-13T22:44:53.200Z,7.24
2023-01-13T22:47:25.647Z,7.53
2023-01-13T22:49:53.862Z,7.53
2023-01-13T22:52:22.897Z,7.58
2023-01-13T22:54:51.429Z,7.53
2023-01-13T22:57:20.072Z,7.43
2023-01-13T22:59:49.322Z,7.51
2023-01-13T23:02:18.934Z,7.45
2023-01-13T23:04:47.706Z,7.43
2023-01-13T23:07:16.235Z,7.49
2023-01-13T23:09:44.451Z,7.51
2023-01-13T23:12:12.841Z,7.48
2023-01-13T23:14:41.809Z,7.38
2023-01-13T23:17:10.613Z,7.39
2023-01-13T23:19:40.617Z,7.51
2023-01-13T23:22:10.167Z,7.53
2023-01-13T23:24:40.004Z,7.53
2023-01-13T23:27:08.212Z,7.57
2023-01-13T23:29:36.893Z,7.41
2023-01-13T23:32:06.480Z,7.42
2023-01-13T23:34:37.342Z,7.41
2023-01-13T23:37:06.896Z,7.37
2023-01-13T23:39:36.142Z,7.35
2023-01-13T23:42:04.574Z,7.24
2023-01-13T23:44:33.002Z,7.12
2023-01-13T23:47:01.655Z,7.10
2023-01-13T23:49:33.907Z,7.12
2023-01-13T23:52:04.455Z,7.14
2023-01-13T23:54:34.308Z,7.09
2023-01-13T23:57:04.105Z,7.07
2023-01-13T23:59:35.611Z,7.08
